sensor_id;sensor_type;location;lat;lon;timestamp;temperature;humidity
41294;DHT22;27037;52.010;4.446;2024-03-02T18:46:28;10.90;99.90
41294;DHT22;27037;52.010;4.446;2024-03-02T18:48:53;10.80;99.90
41294;DHT22;27037;52.010;4.446;2024-03-02T18:51:22;10.90;99.90
41294;DHT22;27037;52.010;4.446;2024-03-02T18:53:48;10.90;99.90
41294;DHT22;27037;52.010;4.446;2024-03-02T18:56:13;11.00;99.90
41294;DHT22;27037;52.010;4.446;2024-03-02T18:58:39;11.00;99.90
41294;DHT22;27037;52.010;4.446;2024-03-02T19:01:05;11.10;99.90
41294;DHT22;27037;52.010;4.446;2024-03-02T19:03:34;11.10;99.90
41294;DHT22;27037;52.010;4.446;2024-03-02T19:05:59;11.10;99.90
41294;DHT22;27037;52.010;4.446;2024-03-02T19:08:27;11.20;99.90
41294;DHT22;27037;52.010;4.446;2024-03-02T19:10:52;11.20;99.90
41294;DHT22;27037;52.010;4.446;2024-03-02T19:13:19;11.30;99.90
41294;DHT22;27037;52.010;4.446;2024-03-02T19:15:44;11.30;99.90
41294;DHT22;27037;52.010;4.446;2024-03-02T19:18:10;11.30;99.90
41294;DHT22;27037;52.010;4.446;2024-03-02T19:20:36;11.30;99.90
41294;DHT22;27037;52.010;4.446;2024-03-02T19:23:01;11.30;99.90
41294;DHT22;27037;52.010;4.446;2024-03-02T19:25:27;11.30;99.90
41294;DHT22;27037;52.010;4.446;2024-03-02T19:27:53;11.30;99.90
41294;DHT22;27037;52.010;4.446;2024-03-02T19:30:18;11.30;99.90
41294;DHT22;27037;52.010;4.446;2024-03-02T19:32:44;11.30;99.90
41294;DHT22;27037;52.010;4.446;2024-03-02T19:35:09;11.30;99.90
41294;DHT22;27037;52.010;4.446;2024-03-02T19:37:38;11.30;99.90
41294;DHT22;27037;52.010;4.446;2024-03-02T19:40:06;11.30;99.90
41294;DHT22;27037;52.010;4.446;2024-03-02T19:42:31;11.30;99.90
41294;DHT22;27037;52.010;4.446;2024-03-02T19:44:57;11.20;99.90
41294;DHT22;27037;52.010;4.446;2024-03-02T19:47:22;11.20;99.90
41294;DHT22;27037;52.010;4.446;2024-03-02T19:49:48;11.10;99.90
41294;DHT22;27037;52.010;4.446;2024-03-02T19:52:14;11.10;99.90
41294;DHT22;27037;52.010;4.446;2024-03-02T19:54:40;11.10;99.90
41294;DHT22;27037;52.010;4.446;2024-03-02T19:57:05;11.00;99.90
41294;DHT22;27037;52.010;4.446;2024-03-02T19:59:31;11.00;99.90
41294;DHT22;27037;52.010;4.446;2024-03-02T20:01:57;11.00;99.90
41294;DHT22;27037;52.010;4.446;2024-03-02T20:04:23;11.00;99.90
41294;DHT22;27037;52.010;4.446;2024-03-02T20:06:52;11.00;99.90
41294;DHT22;27037;52.010;4.446;2024-03-02T20:09:18;10.90;99.90
41294;DHT22;27037;52.010;4.446;2024-03-02T20:11:44;10.90;99.90
41294;DHT22;27037;52.010;4.446;2024-03-02T20:14:10;10.90;99.90
41294;DHT22;27037;52.010;4.446;2024-03-02T20:16:36;10.90;99.90
41294;DHT22;27037;52.010;4.446;2024-03-02T20:19:02;10.90;99.90
41294;DHT22;27037;52.010;4.446;2024-03-02T20:21:28;10.90;99.90
41294;DHT22;27037;52.010;4.446;2024-03-02T20:23:54;10.90;99.90
41294;DHT22;27037;52.010;4.446;2024-03-02T20:26:20;10.90;99.90
41294;DHT22;27037;52.010;4.446;2024-03-02T20:28:46;10.90;99.90
41294;DHT22;27037;52.010;4.446;2024-03-02T20:31:11;10.90;99.90
41294;DHT22;27037;52.010;4.446;2024-03-02T20:33:39;10.90;99.90
41294;DHT22;27037;52.010;4.446;2024-03-02T20:36:06;10.90;99.90
41294;DHT22;27037;52.010;4.446;2024-03-02T20:38:31;10.90;99.90
41294;DHT22;27037;52.010;4.446;2024-03-02T20:40:57;10.90;99.90
41294;DHT22;27037;52.010;4.446;2024-03-02T20:43:22;10.90;99.90
41294;DHT22;27037;52.010;4.446;2024-03-02T20:45:48;10.90;99.90
41294;DHT22;27037;52.010;4.446;2024-03-02T20:48:13;10.90;99.90
41294;DHT22;27037;52.010;4.446;2024-03-02T20:50:40;11.00;99.90
41294;DHT22;27037;52.010;4.446;2024-03-02T20:53:06;11.00;99.90
41294;DHT22;27037;52.010;4.446;2024-03-02T20:55:35;11.00;99.90
41294;DHT22;27037;52.010;4.446;2024-03-02T20:58:03;11.00;99.90
41294;DHT22;27037;52.010;4.446;2024-03-02T21:00:28;11.00;99.90
41294;DHT22;27037;52.010;4.446;2024-03-02T21:02:55;11.00;99.90
41294;DHT22;27037;52.010;4.446;2024-03-02T21:05:23;11.00;99.90
41294;DHT22;27037;52.010;4.446;2024-03-02T21:07:49;11.00;99.90
41294;DHT22;27037;52.010;4.446;2024-03-02T21:10:15;10.90;99.90
41294;DHT22;27037;52.010;4.446;2024-03-02T21:12:41;10.90;99.90
41294;DHT22;27037;52.010;4.446;2024-03-02T21:15:07;10.90;99.90
41294;DHT22;27037;52.010;4.446;2024-03-02T21:17:32;10.90;99.90
41294;DHT22;27037;52.010;4.446;2024-03-02T21:19:58;10.90;99.90
41294;DHT22;27037;52.010;4.446;2024-03-02T21:22:23;10.80;99.90
41294;DHT22;27037;52.010;4.446;2024-03-02T21:24:49;10.80;99.90
41294;DHT22;27037;52.010;4.446;2024-03-02T21:27:15;10.80;99.90
41294;DHT22;27037;52.010;4.446;2024-03-02T21:29:40;10.70;99.90
41294;DHT22;27037;52.010;4.446;2024-03-02T21:32:06;10.70;99.90
41294;DHT22;27037;52.010;4.446;2024-03-02T21:34:32;10.70;99.90
41294;DHT22;27037;52.010;4.446;2024-03-02T21:36:58;10.60;99.90
41294;DHT22;27037;52.010;4.446;2024-03-02T21:39:24;10.70;99.90
41294;DHT22;27037;52.010;4.446;2024-03-02T21:41:49;10.60;99.90
41294;DHT22;27037;52.010;4.446;2024-03-02T21:44:16;10.60;99.90
41294;DHT22;27037;52.010;4.446;2024-03-02T21:46:41;10.60;99.90
41294;DHT22;27037;52.010;4.446;2024-03-02T21:49:07;10.60;99.90
41294;DHT22;27037;52.010;4.446;2024-03-02T21:51:33;10.70;99.90
41294;DHT22;27037;52.010;4.446;2024-03-02T21:53:58;10.70;99.90
41294;DHT22;27037;52.010;4.446;2024-03-02T21:56:24;10.60;99.90
41294;DHT22;27037;52.010;4.446;2024-03-02T21:58:50;10.70;99.90
41294;DHT22;27037;52.010;4.446;2024-03-02T22:01:16;10.60;99.90
41294;DHT22;27037;52.010;4.446;2024-03-02T22:03:43;10.70;99.90
41294;DHT22;27037;52.010;4.446;2024-03-02T22:06:14;10.70;99.90
41294;DHT22;27037;52.010;4.446;2024-03-02T22:08:40;10.70;99.90
41294;DHT22;27037;52.010;4.446;2024-03-02T22:11:06;10.80;99.90
41294;DHT22;27037;52.010;4.446;2024-03-02T22:13:32;10.80;99.90
41294;DHT22;27037;52.010;4.446;2024-03-02T22:15:57;10.80;99.90
41294;DHT22;27037;52.010;4.446;2024-03-02T22:18:23;10.80;99.90
41294;DHT22;27037;52.010;4.446;2024-03-02T22:20:48;10.80;99.90
41294;DHT22;27037;52.010;4.446;2024-03-02T22:23:14;10.80;99.90
41294;DHT22;27037;52.010;4.446;2024-03-02T22:25:40;10.80;99.90
41294;DHT22;27037;52.010;4.446;2024-03-02T22:28:06;10.80;99.90
41294;DHT22;27037;52.010;4.446;2024-03-02T22:30:32;10.80;99.90
41294;DHT22;27037;52.010;4.446;2024-03-02T22:32:58;10.80;99.90
41294;DHT22;27037;52.010;4.446;2024-03-02T22:35:24;10.80;99.90
41294;DHT22;27037;52.010;4.446;2024-03-02T22:37:50;10.80;99.90
41294;DHT22;27037;52.010;4.446;2024-03-02T22:40:15;10.80;99.90
41294;DHT22;27037;52.010;4.446;2024-03-02T22:42:41;10.90;99.90
41294;DHT22;27037;52.010;4.446;2024-03-02T22:45:07;10.80;99.90
41294;DHT22;27037;52.010;4.446;2024-03-02T22:47:32;10.80;99.90
41294;DHT22;27037;52.010;4.446;2024-03-02T22:49:58;10.80;99.90
41294;DHT22;27037;52.010;4.446;2024-03-02T22:52:24;10.80;99.90
41294;DHT22;27037;52.010;4.446;2024-03-02T22:54:50;10.80;99.90
41294;DHT22;27037;52.010;4.446;2024-03-02T22:57:16;10.80;99.90
41294;DHT22;27037;52.010;4.446;2024-03-02T22:59:48;10.80;99.90
41294;DHT22;27037;52.010;4.446;2024-03-02T23:02:14;10.90;99.90
41294;DHT22;27037;52.010;4.446;2024-03-02T23:04:42;10.90;99.90
41294;DHT22;27037;52.010;4.446;2024-03-02T23:07:08;10.90;99.90
41294;DHT22;27037;52.010;4.446;2024-03-02T23:09:33;10.90;99.90
41294;DHT22;27037;52.010;4.446;2024-03-02T23:11:59;10.90;99.90
41294;DHT22;27037;52.010;4.446;2024-03-02T23:14:25;10.90;99.90
41294;DHT22;27037;52.010;4.446;2024-03-02T23:16:50;10.90;99.90
41294;DHT22;27037;52.010;4.446;2024-03-02T23:19:16;10.90;99.90
41294;DHT22;27037;52.010;4.446;2024-03-02T23:21:51;11.00;99.90
41294;DHT22;27037;52.010;4.446;2024-03-02T23:24:17;10.90;99.90
41294;DHT22;27037;52.010;4.446;2024-03-02T23:26:43;11.00;99.90
41294;DHT22;27037;52.010;4.446;2024-03-02T23:29:09;11.00;99.90
41294;DHT22;27037;52.010;4.446;2024-03-02T23:31:34;11.00;99.90
41294;DHT22;27037;52.010;4.446;2024-03-02T23:34:00;11.00;99.90
41294;DHT22;27037;52.010;4.446;2024-03-02T23:36:29;11.00;99.90
41294;DHT22;27037;52.010;4.446;2024-03-02T23:38:56;10.90;99.90
41294;DHT22;27037;52.010;4.446;2024-03-02T23:41:22;10.90;99.90
41294;DHT22;27037;52.010;4.446;2024-03-02T23:43:47;10.90;99.90
41294;DHT22;27037;52.010;4.446;2024-03-02T23:46:13;10.90;99.90
41294;DHT22;27037;52.010;4.446;2024-03-02T23:48:38;10.90;99.90
41294;DHT22;27037;52.010;4.446;2024-03-02T23:51:04;10.90;99.90
41294;DHT22;27037;52.010;4.446;2024-03-02T23:53:30;10.90;99.90
41294;DHT22;27037;52.010;4.446;2024-03-02T23:56:08;10.90;99.90
41294;DHT22;27037;52.010;4.446;2024-03-02T23:58:34;10.90;99.90
